createdAt,value
2018-03-04T00:00:53.304Z,16.33
2018-03-04T00:01:53.305Z,16.32
2018-03-04T00:02:53.314Z,16.31
2018-03-04T00:03:53.307Z,16.34
2018-03-04T00:04:53.313Z,16.32
2018-03-04T00:05:53.301Z,16.31
2018-03-04T00:06:53.286Z,16.29
2018-03-04T00:07:53.293Z,16.32
2018-03-04T00:08:53.303Z,16.31
2018-03-04T00:09:53.325Z,16.29
2018-03-04T00:10:53.320Z,16.3
2018-03-04T00:11:53.332Z,16.29
2018-03-04T00:12:53.301Z,16.28
2018-03-04T00:13:53.300Z,16.26
2018-03-04T00:14:53.307Z,16.27
2018-03-04T00:15:53.307Z,16.26
2018-03-04T00:16:53.313Z,16.26
2018-03-04T00:17:53.294Z,16.26
2018-03-04T00:18:53.294Z,16.22
2018-03-04T00:19:53.317Z,16.24
2018-03-04T00:20:53.288Z,16.25
2018-03-04T00:21:53.296Z,16.22
2018-03-04T00:22:53.276Z,16.22
2018-03-04T00:23:53.308Z,16.24
2018-03-04T00:24:53.294Z,16.21
2018-03-04T00:25:53.295Z,16.21
2018-03-04T00:26:53.288Z,16.22
2018-03-04T00:27:53.328Z,16.22
2018-03-04T00:28:53.305Z,16.21
2018-03-04T00:29:53.283Z,16.22
2018-03-04T00:30:53.280Z,16.19
2018-03-04T00:31:53.275Z,16.21
2018-03-04T00:32:53.294Z,16.18
2018-03-04T00:33:53.291Z,16.18
2018-03-04T00:34:53.299Z,16.16
2018-03-04T00:35:53.296Z,16.17
2018-03-04T00:36:53.276Z,16.17
2018-03-04T00:37:53.313Z,16.16
2018-03-04T00:38:53.318Z,16.17
2018-03-04T00:39:53.298Z,16.18
2018-03-04T00:40:53.285Z,16.14
2018-03-04T00:41:53.285Z,16.17
2018-03-04T00:42:53.269Z,16.16
2018-03-04T00:43:53.311Z,16.16
2018-03-04T00:44:53.298Z,16.16
2018-03-04T00:45:53.274Z,16.16
2018-03-04T00:46:53.304Z,16.14
2018-03-04T00:47:53.273Z,16.14
2018-03-04T00:48:53.281Z,16.17
2018-03-04T00:49:53.283Z,16.14
2018-03-04T00:50:53.279Z,16.16
2018-03-04T00:51:53.281Z,16.12
2018-03-04T00:52:53.284Z,16.14
2018-03-04T00:53:53.264Z,16.13
2018-03-04T00:54:53.279Z,16.13
2018-03-04T00:55:53.288Z,16.13
2018-03-04T00:56:53.278Z,16.12
2018-03-04T00:57:53.296Z,16.1
2018-03-04T00:58:53.288Z,16.11
2018-03-04T00:59:53.262Z,16.12
2018-03-04T01:00:53.273Z,16.08
2018-03-04T01:01:53.294Z,16.08
2018-03-04T01:02:53.270Z,16.07
2018-03-04T01:03:53.305Z,16.08
2018-03-04T01:04:53.298Z,16.1
2018-03-04T01:05:53.271Z,16.08
2018-03-04T01:06:53.276Z,16.1
2018-03-04T01:07:53.390Z,16.08
2018-03-04T01:08:53.254Z,16.08
2018-03-04T01:09:53.270Z,16.06
2018-03-04T01:10:53.284Z,16.05
2018-03-04T01:11:53.271Z,16.05
2018-03-04T01:12:53.303Z,16.05
2018-03-04T01:13:53.279Z,16.05
2018-03-04T01:14:53.261Z,16.05
2018-03-04T01:15:53.261Z,16.05
2018-03-04T01:16:53.260Z,16.05
2018-03-04T01:17:53.259Z,16.04
2018-03-04T01:18:53.291Z,16.05
2018-03-04T01:19:53.286Z,16.04
2018-03-04T01:20:53.281Z,16.05
2018-03-04T01:21:53.254Z,16.01
2018-03-04T01:22:53.344Z,16.04
2018-03-04T01:23:53.289Z,16.01
2018-03-04T01:24:53.322Z,16
2018-03-04T01:25:53.343Z,16
2018-03-04T01:26:53.285Z,16
2018-03-04T01:27:53.274Z,15.98
2018-03-04T01:28:53.269Z,16
2018-03-04T01:29:53.269Z,16
2018-03-04T01:30:53.256Z,15.99
2018-03-04T01:31:53.272Z,16
2018-03-04T01:32:53.287Z,15.99
2018-03-04T01:33:53.279Z,15.99
2018-03-04T01:34:53.258Z,16
2018-03-04T01:35:53.277Z,15.99
2018-03-04T01:36:53.266Z,15.99
2018-03-04T01:37:53.264Z,15.98
2018-03-04T01:38:53.283Z,16
2018-03-04T01:39:53.270Z,15.98
2018-03-04T01:40:53.268Z,15.97
2018-03-04T01:41:53.289Z,15.96
2018-03-04T01:42:53.300Z,15.96
2018-03-04T01:43:53.265Z,15.93
2018-03-04T01:44:53.318Z,15.95
2018-03-04T01:45:53.266Z,15.95
2018-03-04T01:46:53.261Z,15.97
2018-03-04T01:47:53.263Z,15.96
2018-03-04T01:48:53.263Z,15.96
2018-03-04T01:49:53.277Z,15.95
2018-03-04T01:50:53.291Z,15.92
2018-03-04T01:51:53.280Z,15.93
2018-03-04T01:52:53.313Z,15.96
2018-03-04T01:53:53.260Z,15.95
2018-03-04T01:54:53.258Z,15.93
2018-03-04T01:55:53.266Z,15.91
2018-03-04T01:56:53.293Z,15.91
2018-03-04T01:57:53.282Z,15.92
2018-03-04T01:58:53.492Z,15.9
2018-03-04T01:59:53.300Z,15.89
2018-03-04T02:00:53.249Z,15.87
2018-03-04T02:01:53.242Z,15.88
2018-03-04T02:02:53.285Z,15.89
2018-03-04T02:03:53.257Z,15.88
2018-03-04T02:04:53.256Z,15.89
2018-03-04T02:05:53.244Z,15.85
2018-03-04T02:06:53.268Z,15.88
2018-03-04T02:07:53.527Z,15.87
2018-03-04T02:08:53.261Z,15.86
2018-03-04T02:09:53.248Z,15.86
2018-03-04T02:10:53.259Z,15.85
2018-03-04T02:11:53.272Z,15.89
2018-03-04T02:12:53.278Z,15.86
2018-03-04T02:13:53.258Z,15.85
2018-03-04T02:14:53.261Z,15.85
2018-03-04T02:15:53.256Z,15.85
2018-03-04T02:16:53.287Z,15.82
2018-03-04T02:17:53.282Z,15.82
2018-03-04T02:18:53.245Z,15.82
2018-03-04T02:19:53.236Z,15.83
2018-03-04T02:20:53.280Z,15.82
2018-03-04T02:21:53.250Z,15.83
2018-03-04T02:22:53.522Z,15.82
2018-03-04T02:23:53.252Z,15.8
2018-03-04T02:24:53.238Z,15.8
2018-03-04T02:25:53.253Z,15.77
2018-03-04T02:26:53.263Z,15.77
2018-03-04T02:27:53.257Z,15.82
2018-03-04T02:28:53.253Z,15.78
2018-03-04T02:29:53.250Z,15.78
2018-03-04T02:30:53.292Z,15.76
2018-03-04T02:31:53.269Z,15.77
2018-03-04T02:32:53.280Z,15.77
2018-03-04T02:33:53.266Z,15.78
2018-03-04T02:34:53.257Z,15.77
2018-03-04T02:35:53.259Z,15.74
2018-03-04T02:36:53.243Z,15.75
2018-03-04T02:37:53.245Z,15.75
2018-03-04T02:38:53.261Z,15.74
2018-03-04T02:39:53.245Z,15.75
2018-03-04T02:40:53.246Z,15.75
2018-03-04T02:41:53.267Z,15.75
2018-03-04T02:42:53.242Z,15.73
2018-03-04T02:43:53.256Z,15.71
2018-03-04T02:44:53.250Z,15.72
2018-03-04T02:45:53.271Z,15.71
2018-03-04T02:46:53.245Z,15.7
2018-03-04T02:47:53.264Z,15.71
2018-03-04T02:48:53.259Z,15.72
2018-03-04T02:49:53.236Z,15.7
2018-03-04T02:50:53.254Z,15.69
2018-03-04T02:51:53.241Z,15.7
2018-03-04T02:52:53.235Z,15.7
2018-03-04T02:53:53.230Z,15.68
2018-03-04T02:54:53.238Z,15.72
2018-03-04T02:55:53.264Z,15.68
2018-03-04T02:56:53.247Z,15.68
2018-03-04T02:57:53.248Z,15.68
2018-03-04T02:58:53.261Z,15.65
2018-03-04T02:59:53.263Z,15.67
2018-03-04T03:00:53.297Z,15.67
2018-03-04T03:01:53.264Z,15.68
2018-03-04T03:02:53.252Z,15.67
2018-03-04T03:03:53.256Z,15.66
2018-03-04T03:04:53.222Z,15.67
2018-03-04T03:05:53.245Z,15.66
2018-03-04T03:06:53.286Z,15.66
2018-03-04T03:07:53.507Z,15.66
2018-03-04T03:08:53.234Z,15.67
2018-03-04T03:09:53.230Z,15.67
2018-03-04T03:10:53.240Z,15.66
2018-03-04T03:11:53.237Z,15.65
2018-03-04T03:12:53.255Z,15.62
2018-03-04T03:13:53.235Z,15.63
2018-03-04T03:14:53.226Z,15.62
2018-03-04T03:15:53.503Z,15.63
2018-03-04T03:16:53.231Z,15.63
2018-03-04T03:17:53.257Z,15.6
2018-03-04T03:18:53.236Z,15.61
2018-03-04T03:19:53.231Z,15.63
2018-03-04T03:20:53.266Z,15.61
2018-03-04T03:21:53.240Z,15.63
2018-03-04T03:22:53.237Z,15.61
2018-03-04T03:23:53.251Z,15.61
2018-03-04T03:24:53.220Z,15.6
2018-03-04T03:25:53.309Z,15.62
2018-03-04T03:26:53.419Z,15.6
2018-03-04T03:27:53.221Z,15.59
2018-03-04T03:28:53.213Z,15.59
2018-03-04T03:29:53.219Z,15.59
2018-03-04T03:30:53.512Z,15.57
2018-03-04T03:31:53.231Z,15.59
2018-03-04T03:32:53.237Z,15.57
2018-03-04T03:33:53.208Z,15.57
2018-03-04T03:34:55.222Z,15.55
2018-03-04T03:35:53.232Z,15.57
2018-03-04T03:36:53.238Z,15.57
2018-03-04T03:37:53.221Z,15.57
2018-03-04T03:38:53.214Z,15.56
2018-03-04T03:39:53.215Z,15.56
2018-03-04T03:40:53.219Z,15.57
2018-03-04T03:41:53.486Z,15.56
2018-03-04T03:42:53.222Z,15.53
2018-03-04T03:43:53.226Z,15.53
2018-03-04T03:44:53.233Z,15.55
2018-03-04T03:45:53.212Z,15.54
2018-03-04T03:46:53.385Z,15.56
2018-03-04T03:47:53.200Z,15.54
2018-03-04T03:48:53.208Z,15.55
2018-03-04T03:49:53.220Z,15.53
2018-03-04T03:50:53.227Z,15.53
2018-03-04T03:51:53.231Z,15.52
2018-03-04T03:52:53.221Z,15.52
2018-03-04T03:53:53.220Z,15.53
2018-03-04T03:54:53.198Z,15.52
2018-03-04T03:55:53.216Z,15.54
2018-03-04T03:56:53.243Z,15.53
2018-03-04T03:57:53.222Z,15.53
2018-03-04T03:58:53.216Z,15.53
2018-03-04T03:59:53.219Z,15.53
2018-03-04T04:00:53.214Z,15.52
2018-03-04T04:01:53.276Z,15.47
2018-03-04T04:02:53.236Z,15.48
2018-03-04T04:03:53.232Z,15.53
2018-03-04T04:04:53.234Z,15.48
2018-03-04T04:05:53.228Z,15.49
2018-03-04T04:06:53.205Z,15.49
2018-03-04T04:07:53.239Z,15.47
2018-03-04T04:08:53.214Z,15.47
2018-03-04T04:09:53.217Z,15.48
2018-03-04T04:10:53.247Z,15.47
2018-03-04T04:11:53.193Z,15.48
2018-03-04T04:12:59.327Z,15.47
2018-03-04T04:13:53.211Z,15.48
2018-03-04T04:14:53.206Z,15.46
2018-03-04T04:15:53.224Z,15.44
2018-03-04T04:16:53.233Z,15.45
2018-03-04T04:17:53.222Z,15.47
2018-03-04T04:18:53.233Z,15.46
2018-03-04T04:19:53.210Z,15.45
2018-03-04T04:20:53.225Z,15.45
2018-03-04T04:21:53.222Z,15.47
2018-03-04T04:22:53.208Z,15.45
2018-03-04T04:23:53.208Z,15.45
2018-03-04T04:24:53.200Z,15.43
2018-03-04T04:25:53.241Z,15.43
2018-03-04T04:26:53.221Z,15.43
2018-03-04T04:27:53.197Z,15.43
2018-03-04T04:28:53.225Z,15.43
2018-03-04T04:29:53.218Z,15.47
2018-03-04T04:30:53.211Z,15.4
2018-03-04T04:31:53.195Z,15.45
2018-03-04T04:32:53.216Z,15.41
2018-03-04T04:33:53.196Z,15.43
2018-03-04T04:34:53.212Z,15.42
2018-03-04T04:35:53.218Z,15.43
2018-03-04T04:36:53.207Z,15.44
2018-03-04T04:37:53.198Z,15.41
2018-03-04T04:38:53.215Z,15.41
2018-03-04T04:39:53.198Z,15.39
2018-03-04T04:40:53.196Z,15.41
2018-03-04T04:41:53.208Z,15.4
2018-03-04T04:42:53.208Z,15.42
2018-03-04T04:43:53.208Z,15.42
2018-03-04T04:44:53.192Z,15.42
2018-03-04T04:45:53.187Z,15.39
2018-03-04T04:46:53.199Z,15.4
2018-03-04T04:47:53.177Z,15.4
2018-03-04T04:48:53.204Z,15.4
2018-03-04T04:49:53.193Z,15.41
2018-03-04T04:50:53.195Z,15.42
2018-03-04T04:51:53.181Z,15.42
2018-03-04T04:52:53.254Z,15.41
2018-03-04T04:53:53.437Z,15.41
2018-03-04T04:54:53.191Z,15.41
2018-03-04T04:55:53.190Z,15.42
2018-03-04T04:56:53.204Z,15.43
2018-03-04T04:57:53.188Z,15.46
2018-03-04T04:58:53.216Z,15.43
2018-03-04T04:59:53.180Z,15.42
2018-03-04T05:00:53.193Z,15.41
2018-03-04T05:01:53.203Z,15.43
2018-03-04T05:02:53.221Z,15.42
2018-03-04T05:03:53.211Z,15.4
2018-03-04T05:04:53.191Z,15.43
2018-03-04T05:05:53.231Z,15.41
2018-03-04T05:06:53.180Z,15.42
2018-03-04T05:07:53.177Z,15.41
2018-03-04T05:08:53.174Z,15.45
2018-03-04T05:09:53.194Z,15.43
2018-03-04T05:10:53.195Z,15.43
2018-03-04T05:11:53.182Z,15.44
2018-03-04T05:12:53.215Z,15.45
2018-03-04T05:13:53.176Z,15.45
2018-03-04T05:14:53.181Z,15.47
2018-03-04T05:15:53.183Z,15.47
2018-03-04T05:16:53.179Z,15.51
2018-03-04T05:17:53.225Z,15.52
2018-03-04T05:18:53.190Z,15.52
2018-03-04T05:19:53.192Z,15.54
2018-03-04T05:20:53.224Z,15.55
2018-03-04T05:21:53.182Z,15.55
2018-03-04T05:22:53.189Z,15.54
2018-03-04T05:23:53.182Z,15.57
2018-03-04T05:24:53.177Z,15.56
2018-03-04T05:25:53.215Z,15.57
2018-03-04T05:26:53.284Z,15.6
2018-03-04T05:27:53.270Z,15.61
2018-03-04T05:28:53.178Z,15.62
2018-03-04T05:29:53.182Z,15.66
2018-03-04T05:30:53.502Z,15.67
2018-03-04T05:31:53.198Z,15.68
2018-03-04T05:32:53.182Z,15.68
2018-03-04T05:33:53.165Z,15.71
2018-03-04T05:34:53.179Z,15.72
2018-03-04T05:35:53.203Z,15.75
2018-03-04T05:36:53.178Z,15.78
2018-03-04T05:37:53.178Z,15.8
2018-03-04T05:38:53.180Z,15.82
2018-03-04T05:39:53.158Z,15.82
2018-03-04T05:40:53.178Z,15.83
2018-03-04T05:41:53.214Z,15.85
2018-03-04T05:42:53.190Z,15.87
2018-03-04T05:43:53.177Z,15.86
2018-03-04T05:44:53.183Z,15.91
2018-03-04T05:45:53.192Z,15.92
2018-03-04T05:46:53.203Z,15.95
2018-03-04T05:47:53.174Z,15.97
2018-03-04T05:48:53.179Z,15.98
2018-03-04T05:49:53.173Z,15.99
2018-03-04T05:50:53.174Z,16.01
2018-03-04T05:51:53.204Z,16.03
2018-03-04T05:52:53.175Z,16.04
2018-03-04T05:53:53.183Z,16.04
2018-03-04T05:54:53.170Z,16.05
2018-03-04T05:55:53.165Z,16.08
2018-03-04T05:56:53.434Z,16.1
2018-03-04T05:57:53.172Z,16.13
2018-03-04T05:58:53.174Z,16.13
2018-03-04T05:59:53.173Z,16.13
2018-03-04T06:00:53.178Z,16.16
2018-03-04T06:01:53.192Z,16.18
2018-03-04T06:02:53.196Z,16.2
2018-03-04T06:03:53.190Z,16.18
2018-03-04T06:04:53.171Z,16.22
2018-03-04T06:05:53.157Z,16.22
2018-03-04T06:06:53.196Z,16.22
2018-03-04T06:07:53.190Z,16.26
2018-03-04T06:08:53.210Z,16.26
2018-03-04T06:09:53.159Z,16.26
2018-03-04T06:10:53.195Z,16.28
2018-03-04T06:11:53.180Z,16.3
2018-03-04T06:12:53.161Z,16.31
2018-03-04T06:13:53.178Z,16.31
2018-03-04T06:14:53.153Z,16.33
2018-03-04T06:15:53.160Z,16.34
2018-03-04T06:16:53.430Z,16.36
2018-03-04T06:17:53.177Z,16.36
2018-03-04T06:18:53.150Z,16.37
2018-03-04T06:19:53.172Z,16.39
2018-03-04T06:20:53.172Z,16.4
2018-03-04T06:21:53.173Z,16.37
2018-03-04T06:22:53.160Z,16.42
2018-03-04T06:23:53.169Z,16.43
2018-03-04T06:24:53.157Z,16.42
2018-03-04T06:25:53.183Z,16.45
2018-03-04T06:26:53.165Z,16.46
2018-03-04T06:27:53.150Z,16.45
2018-03-04T06:28:53.154Z,16.48
2018-03-04T06:29:53.148Z,16.47
2018-03-04T06:30:53.434Z,16.48
2018-03-04T06:31:53.160Z,16.49
2018-03-04T06:32:53.203Z,16.51
2018-03-04T06:33:53.168Z,16.54
2018-03-04T06:34:53.166Z,16.51
2018-03-04T06:35:53.180Z,16.55
2018-03-04T06:36:53.166Z,16.51
2018-03-04T06:37:53.161Z,16.54
2018-03-04T06:38:53.149Z,16.56
2018-03-04T06:39:53.159Z,16.56
2018-03-04T06:40:53.153Z,16.58
2018-03-04T06:41:53.166Z,16.58
2018-03-04T06:42:53.186Z,16.59
2018-03-04T06:43:53.160Z,16.6
2018-03-04T06:44:53.202Z,16.61
2018-03-04T06:45:53.215Z,16.59
2018-03-04T06:46:53.161Z,16.61
2018-03-04T06:47:53.170Z,16.63
2018-03-04T06:48:53.172Z,16.62
2018-03-04T06:49:53.183Z,16.64
2018-03-04T06:50:53.158Z,16.67
2018-03-04T06:51:53.154Z,16.65
2018-03-04T06:52:53.163Z,16.67
2018-03-04T06:53:53.152Z,16.67
2018-03-04T06:54:53.151Z,16.69
2018-03-04T06:55:53.159Z,16.7
2018-03-04T06:56:53.178Z,16.69
2018-03-04T06:57:53.297Z,16.71
2018-03-04T06:58:53.163Z,16.71
2018-03-04T06:59:53.170Z,16.72
2018-03-04T07:00:53.187Z,16.73
2018-03-04T07:01:53.147Z,16.74
2018-03-04T07:02:53.168Z,16.73
2018-03-04T07:03:53.145Z,16.76
2018-03-04T07:04:53.242Z,16.74
2018-03-04T07:05:53.151Z,16.78
2018-03-04T07:06:53.141Z,16.75
2018-03-04T07:07:53.164Z,16.78
2018-03-04T07:08:53.184Z,16.79
2018-03-04T07:09:53.170Z,16.8
2018-03-04T07:10:53.143Z,16.78
2018-03-04T07:11:53.150Z,16.79
2018-03-04T07:12:53.147Z,16.84
2018-03-04T07:13:53.164Z,16.81
2018-03-04T07:14:53.157Z,16.81
2018-03-04T07:15:53.163Z,16.85
2018-03-04T07:16:53.224Z,16.85
2018-03-04T07:17:53.157Z,16.84
2018-03-04T07:18:53.162Z,16.87
2018-03-04T07:19:53.168Z,16.87
2018-03-04T07:20:53.128Z,16.85
2018-03-04T07:21:53.137Z,16.87
2018-03-04T07:22:53.191Z,16.87
2018-03-04T07:23:53.143Z,16.88
2018-03-04T07:24:53.181Z,16.9
2018-03-04T07:25:53.149Z,16.88
2018-03-04T07:26:53.193Z,16.91
2018-03-04T07:27:53.289Z,16.91
2018-03-04T07:28:53.247Z,16.91
2018-03-04T07:29:53.415Z,16.91
2018-03-04T07:30:53.141Z,16.91
2018-03-04T07:31:53.135Z,16.95
2018-03-04T07:32:53.156Z,16.92
2018-03-04T07:33:53.149Z,16.93
2018-03-04T07:34:53.185Z,16.95
2018-03-04T07:35:53.146Z,16.95
2018-03-04T07:36:53.136Z,16.95
2018-03-04T07:37:53.137Z,16.96
2018-03-04T07:38:53.164Z,16.98
2018-03-04T07:39:53.406Z,16.99
2018-03-04T07:40:53.149Z,17
2018-03-04T07:41:53.126Z,17.01
2018-03-04T07:42:53.134Z,17
2018-03-04T07:43:53.134Z,17.02
2018-03-04T07:44:53.180Z,17
2018-03-04T07:45:53.142Z,17
2018-03-04T07:46:53.142Z,17.02
2018-03-04T07:47:53.138Z,17.02
2018-03-04T07:48:53.162Z,17.02
2018-03-04T07:49:53.164Z,17.02
2018-03-04T07:50:53.139Z,17.03
2018-03-04T07:51:53.186Z,17.05
2018-03-04T07:52:53.138Z,17.03
2018-03-04T07:53:53.127Z,17.04
2018-03-04T07:54:53.150Z,17.07
2018-03-04T07:55:53.118Z,17.05
2018-03-04T07:56:53.141Z,17.06
2018-03-04T07:57:53.145Z,17.06
2018-03-04T07:58:53.114Z,17.08
2018-03-04T07:59:53.149Z,17.06
2018-03-04T08:00:53.141Z,17.09
2018-03-04T08:01:53.141Z,17.08
2018-03-04T08:02:53.145Z,17.1
2018-03-04T08:03:53.139Z,17.1
2018-03-04T08:04:53.149Z,17.11
2018-03-04T08:05:53.135Z,17.1
2018-03-04T08:06:53.169Z,17.11
2018-03-04T08:07:53.173Z,17.13
2018-03-04T08:08:53.130Z,17.11
2018-03-04T08:09:53.161Z,17.14
2018-03-04T08:10:53.134Z,17.11
2018-03-04T08:11:53.141Z,17.11
2018-03-04T08:12:53.140Z,17.14
2018-03-04T08:13:53.133Z,17.16
2018-03-04T08:14:53.119Z,17.14
2018-03-04T08:15:53.121Z,17.16
2018-03-04T08:16:53.188Z,17.16
2018-03-04T08:17:53.129Z,17.17
2018-03-04T08:18:53.136Z,17.18
2018-03-04T08:19:53.128Z,17.17
2018-03-04T08:20:53.114Z,17.19
2018-03-04T08:21:53.142Z,17.18
2018-03-04T08:22:53.132Z,17.17
2018-03-04T08:23:53.155Z,17.18
2018-03-04T08:24:53.125Z,17.2
2018-03-04T08:25:53.122Z,17.2
2018-03-04T08:26:53.111Z,17.2
2018-03-04T08:27:53.126Z,17.21
2018-03-04T08:28:53.148Z,17.19
2018-03-04T08:29:53.107Z,17.21
2018-03-04T08:30:53.118Z,17.2
2018-03-04T08:31:53.144Z,17.2
2018-03-04T08:32:53.122Z,17.21
2018-03-04T08:33:53.403Z,17.2
2018-03-04T08:34:53.115Z,17.21
2018-03-04T08:35:53.134Z,17.22
2018-03-04T08:36:53.117Z,17.21
2018-03-04T08:37:53.111Z,17.22
2018-03-04T08:38:53.131Z,17.2
2018-03-04T08:39:53.109Z,17.22
2018-03-04T08:40:53.115Z,17.23
2018-03-04T08:41:53.112Z,17.21
2018-03-04T08:42:53.114Z,17.22
2018-03-04T08:43:53.145Z,17.21
2018-03-04T08:44:53.117Z,17.21
2018-03-04T08:45:53.123Z,17.22
2018-03-04T08:46:53.118Z,17.21
2018-03-04T08:47:53.189Z,17.21
2018-03-04T08:48:53.102Z,17.2
2018-03-04T08:49:53.139Z,17.2
2018-03-04T08:50:53.139Z,17.22
2018-03-04T08:51:53.119Z,17.22
2018-03-04T08:52:53.111Z,17.2
2018-03-04T08:53:53.128Z,17.22
2018-03-04T08:54:53.113Z,17.22
2018-03-04T08:55:53.110Z,17.22
2018-03-04T08:56:53.123Z,17.22
2018-03-04T08:57:53.154Z,17.22
2018-03-04T08:58:53.100Z,17.24
2018-03-04T08:59:53.117Z,17.22
2018-03-04T09:00:53.114Z,17.24
2018-03-04T09:01:53.122Z,17.25
2018-03-04T09:02:53.133Z,17.25
2018-03-04T09:03:53.134Z,17.25
2018-03-04T09:04:53.116Z,17.28
2018-03-04T09:05:53.108Z,17.3
2018-03-04T09:06:53.101Z,17.26
2018-03-04T09:07:53.100Z,17.26
2018-03-04T09:08:53.112Z,17.28
2018-03-04T09:09:53.112Z,17.28
2018-03-04T09:10:53.122Z,17.28
2018-03-04T09:11:53.107Z,17.3
2018-03-04T09:12:53.099Z,17.31
2018-03-04T09:13:53.100Z,17.28
2018-03-04T09:14:53.381Z,17.3
2018-03-04T09:15:53.113Z,17.31
2018-03-04T09:16:53.109Z,17.3
2018-03-04T09:17:53.097Z,17.32
2018-03-04T09:18:53.155Z,17.32
2018-03-04T09:19:53.394Z,17.32
2018-03-04T09:20:53.371Z,17.33
2018-03-04T09:21:53.108Z,17.32
2018-03-04T09:22:53.087Z,17.33
2018-03-04T09:23:53.101Z,17.33
2018-03-04T09:24:53.117Z,17.34
2018-03-04T09:25:53.376Z,17.32
2018-03-04T09:26:53.096Z,17.36
2018-03-04T09:27:53.091Z,17.33
2018-03-04T09:28:53.198Z,17.34
2018-03-04T09:29:53.192Z,17.36
2018-03-04T09:30:53.125Z,17.36
2018-03-04T09:31:53.101Z,17.35
2018-03-04T09:32:53.081Z,17.37
2018-03-04T09:33:53.095Z,17.37
2018-03-04T09:34:53.095Z,17.35
2018-03-04T09:35:53.118Z,17.37
2018-03-04T09:36:53.093Z,17.36
2018-03-04T09:37:53.073Z,17.37
2018-03-04T09:38:53.094Z,17.37
2018-03-04T09:39:53.111Z,17.39
2018-03-04T09:40:53.102Z,17.37
2018-03-04T09:41:53.155Z,17.39
2018-03-04T09:42:53.113Z,17.4
2018-03-04T09:43:53.091Z,17.38
2018-03-04T09:44:53.084Z,17.4
2018-03-04T09:45:53.118Z,17.39
2018-03-04T09:46:53.113Z,17.43
2018-03-04T09:47:53.124Z,17.41
2018-03-04T09:48:53.102Z,17.44
2018-03-04T09:49:53.108Z,17.43
2018-03-04T09:50:53.098Z,17.45
2018-03-04T09:51:53.118Z,17.43
2018-03-04T09:52:53.133Z,17.43
2018-03-04T09:53:53.103Z,17.41
2018-03-04T09:54:53.080Z,17.43
2018-03-04T09:55:53.088Z,17.44
2018-03-04T09:56:53.103Z,17.45
2018-03-04T09:57:53.142Z,17.45
2018-03-04T09:58:53.106Z,17.45
2018-03-04T09:59:53.080Z,17.46
2018-03-04T10:00:53.123Z,17.47
2018-03-04T10:01:53.093Z,17.47
2018-03-04T10:02:53.128Z,17.46
2018-03-04T10:03:53.117Z,17.46
2018-03-04T10:04:53.108Z,17.46
2018-03-04T10:05:53.094Z,17.5
2018-03-04T10:06:53.110Z,17.49
2018-03-04T10:07:53.132Z,17.5
2018-03-04T10:08:53.123Z,17.49
2018-03-04T10:09:53.121Z,17.5
2018-03-04T10:10:53.086Z,17.5
2018-03-04T10:11:53.089Z,17.49
2018-03-04T10:12:53.138Z,17.5
2018-03-04T10:13:53.112Z,17.52
2018-03-04T10:14:53.187Z,17.51
2018-03-04T10:15:53.096Z,17.53
2018-03-04T10:16:53.086Z,17.52
2018-03-04T10:17:53.088Z,17.52
2018-03-04T10:18:53.141Z,17.52
2018-03-04T10:19:53.113Z,17.55
2018-03-04T10:20:53.088Z,17.52
2018-03-04T10:21:53.122Z,17.54
2018-03-04T10:22:53.093Z,17.54
2018-03-04T10:23:53.074Z,17.54
2018-03-04T10:24:53.098Z,17.55
2018-03-04T10:25:53.099Z,17.56
2018-03-04T10:26:53.069Z,17.58
2018-03-04T10:27:53.092Z,17.56
2018-03-04T10:28:53.092Z,17.59
2018-03-04T10:29:53.133Z,17.6
2018-03-04T10:30:53.072Z,17.61
2018-03-04T10:31:53.075Z,17.58
2018-03-04T10:32:53.128Z,17.59
2018-03-04T10:33:53.093Z,17.62
2018-03-04T10:34:53.113Z,17.62
2018-03-04T10:35:53.097Z,17.58
2018-03-04T10:36:53.147Z,17.56
2018-03-04T10:37:53.250Z,17.63
2018-03-04T10:38:53.103Z,17.61
2018-03-04T10:39:53.081Z,17.62
2018-03-04T10:40:53.082Z,17.63
2018-03-04T10:41:53.084Z,17.63
2018-03-04T10:42:53.059Z,17.63
2018-03-04T10:43:53.068Z,17.63
2018-03-04T10:44:53.181Z,17.64
2018-03-04T10:45:53.095Z,17.67
2018-03-04T10:46:53.078Z,17.65
2018-03-04T10:47:30.521Z,17.83
2018-03-04T10:47:42.329Z,17.84
2018-03-04T10:48:42.281Z,17.88
2018-03-04T10:49:42.364Z,17.91
2018-03-04T10:50:42.292Z,17.93
2018-03-04T10:51:42.275Z,17.98
2018-03-04T10:52:42.260Z,18
2018-03-04T10:53:42.275Z,18
2018-03-04T10:54:42.281Z,18.05
2018-03-04T10:55:42.337Z,18.07
2018-03-04T10:56:42.267Z,18.09
2018-03-04T10:57:42.272Z,18.12
2018-03-04T10:58:42.580Z,18.12
2018-03-04T10:59:42.281Z,18.13
2018-03-04T11:00:42.288Z,18.15
2018-03-04T11:01:42.288Z,18.17
2018-03-04T11:02:42.295Z,18.2
2018-03-04T11:03:42.280Z,18.21
2018-03-04T11:04:42.263Z,18.22
2018-03-04T11:05:42.279Z,18.26
2018-03-04T11:06:42.276Z,18.26
2018-03-04T11:07:42.280Z,18.28
2018-03-04T11:08:42.273Z,18.28
2018-03-04T11:09:42.520Z,18.29
2018-03-04T11:10:42.279Z,18.34
2018-03-04T11:11:42.314Z,18.35
2018-03-04T11:12:42.269Z,18.37
2018-03-04T11:13:42.270Z,18.4
2018-03-04T11:14:42.291Z,18.4
2018-03-04T11:15:42.269Z,18.41
2018-03-04T11:16:42.280Z,18.44
2018-03-04T11:17:48.276Z,18.44
2018-03-04T11:18:48.235Z,18.47
2018-03-04T11:19:48.265Z,18.53
2018-03-04T11:20:48.272Z,18.53
2018-03-04T11:21:48.318Z,18.53
2018-03-04T11:22:48.240Z,18.54
2018-03-04T11:23:48.254Z,18.54
2018-03-04T11:24:44.486Z,18.55
2018-03-04T11:25:44.470Z,18.61
2018-03-04T11:26:44.512Z,18.62
2018-03-04T11:27:44.476Z,18.64
2018-03-04T11:28:44.985Z,18.64
2018-03-04T11:31:17.378Z,18.71
2018-03-04T11:32:17.318Z,18.58
2018-03-04T11:33:17.354Z,18.48
2018-03-04T11:34:17.737Z,18.4
2018-03-04T11:35:17.375Z,18.35
2018-03-04T11:36:17.322Z,18.3
2018-03-04T11:37:17.752Z,18.27
2018-03-04T11:38:17.746Z,18.24
2018-03-04T11:39:17.434Z,18.21
2018-03-04T11:40:17.369Z,18.18
2018-03-04T11:41:17.771Z,18.18
2018-03-04T11:42:17.338Z,18.15
2018-03-04T11:43:17.780Z,18.18
2018-03-04T11:44:17.384Z,18.19
2018-03-04T11:45:17.321Z,18.18
2018-03-04T11:46:17.376Z,18.18
2018-03-04T11:47:17.441Z,18.17
2018-03-04T11:48:17.423Z,18.15
2018-03-04T11:49:17.601Z,18.17
2018-03-04T11:50:17.352Z,18.17
2018-03-04T11:51:17.433Z,18.17
2018-03-04T11:52:17.520Z,18.15
2018-03-04T11:53:17.172Z,18.15
2018-03-04T11:54:17.135Z,18.18
2018-03-04T11:55:17.169Z,18.15
2018-03-04T11:56:17.249Z,18.17
2018-03-04T11:57:17.277Z,18.14
2018-03-04T11:58:17.287Z,18.15
2018-03-04T11:59:17.121Z,18.18
2018-03-04T12:00:17.156Z,18.19
2018-03-04T12:01:17.180Z,18.19
2018-03-04T12:02:17.134Z,18.22
2018-03-04T12:03:17.106Z,18.22
2018-03-04T12:04:17.142Z,18.2
2018-03-04T12:05:17.107Z,18.21
2018-03-04T12:06:17.090Z,18.21
2018-03-04T12:07:17.085Z,18.21
2018-03-04T12:08:17.111Z,18.21
2018-03-04T12:09:17.720Z,18.25
2018-03-04T12:10:17.122Z,18.3
2018-03-04T12:11:17.092Z,18.29
2018-03-04T12:12:17.081Z,18.32
2018-03-04T12:13:17.107Z,18.32
2018-03-04T12:14:17.620Z,18.27
2018-03-04T12:15:17.314Z,18.28
2018-03-04T12:16:17.182Z,18.22
2018-03-04T12:17:17.120Z,18.24
2018-03-04T12:18:17.118Z,18.24
2018-03-04T12:19:17.324Z,18.21
2018-03-04T12:20:17.100Z,18.22
2018-03-04T12:21:17.096Z,18.22
2018-03-04T12:22:17.101Z,18.2
2018-03-04T12:23:17.080Z,18.18
2018-03-04T12:24:17.069Z,18.19
2018-03-04T12:25:17.143Z,18.19
2018-03-04T12:26:17.170Z,18.18
2018-03-04T12:27:17.119Z,18.19
2018-03-04T12:28:17.073Z,18.19
2018-03-04T12:29:17.101Z,18.21
2018-03-04T12:30:17.066Z,18.21
2018-03-04T12:31:17.357Z,18.21
2018-03-04T12:32:17.063Z,18.2
2018-03-04T12:33:17.227Z,18.22
2018-03-04T12:34:17.077Z,18.21
2018-03-04T12:35:17.146Z,18.21
2018-03-04T12:36:17.101Z,18.22
2018-03-04T12:37:17.069Z,18.21
2018-03-04T12:38:17.108Z,18.2
2018-03-04T12:39:17.079Z,18.23
2018-03-04T12:40:17.062Z,18.2
2018-03-04T12:41:17.078Z,18.21
2018-03-04T12:42:17.094Z,18.19
2018-03-04T12:43:17.128Z,18.19
2018-03-04T12:44:17.072Z,18.15
2018-03-04T12:45:17.080Z,18.15
2018-03-04T12:46:17.086Z,18.15
2018-03-04T12:47:17.077Z,18.15
2018-03-04T12:48:17.061Z,18.13
2018-03-04T12:49:17.069Z,18.14
2018-03-04T12:50:17.068Z,18.14
2018-03-04T12:51:17.072Z,18.12
2018-03-04T12:52:17.106Z,18.09
2018-03-04T12:53:17.075Z,18.09
2018-03-04T12:54:17.048Z,18.1
2018-03-04T12:55:17.059Z,18.08
2018-03-04T12:56:17.455Z,18.08
2018-03-04T12:57:17.337Z,18.09